createdAt,value
2018-10-01T00:01:23.614Z,19.33
2018-10-01T00:03:51.205Z,10.00
2018-10-01T00:06:18.726Z,10.87
2018-10-01T00:08:46.270Z,16.60
2018-10-01T00:11:13.821Z,12.97
2018-10-01T00:13:41.402Z,11.73
2018-10-01T00:16:08.806Z,16.07
2018-10-01T00:18:36.302Z,10.30
2018-10-01T00:21:09.442Z,11.60
2018-10-01T00:23:37.333Z,11.40
2018-10-01T00:26:04.820Z,13.93
2018-10-01T00:28:32.209Z,19.63
2018-10-01T00:31:00.005Z,15.43
2018-10-01T00:33:27.401Z,15.80
2018-10-01T00:35:54.782Z,17.70
2018-10-01T00:38:22.260Z,13.10
2018-10-01T00:40:49.791Z,12.50
2018-10-01T00:43:17.473Z,12.50
2018-10-01T00:45:44.889Z,11.43
2018-10-01T00:48:12.280Z,17.77
2018-10-01T00:50:39.710Z,10.27
2018-10-01T00:53:07.156Z,15.90
2018-10-01T00:55:34.570Z,10.93
2018-10-01T00:58:01.978Z,17.00
2018-10-01T01:00:29.592Z,12.60
2018-10-01T01:02:57.014Z,15.10
2018-10-01T01:05:24.410Z,12.30
2018-10-01T01:07:52.044Z,11.17
2018-10-01T01:10:19.458Z,10.70
2018-10-01T01:12:46.874Z,24.57
2018-10-01T01:15:14.356Z,12.43
2018-10-01T01:17:41.830Z,9.83
2018-10-01T01:20:09.291Z,12.13
2018-10-01T01:22:36.724Z,14.50
2018-10-01T01:25:04.348Z,13.83
2018-10-01T01:27:31.746Z,15.80
2018-10-01T01:29:59.194Z,11.53
2018-10-01T01:32:26.810Z,15.23
2018-10-01T01:34:54.198Z,18.03
2018-10-01T01:37:21.710Z,11.57
2018-10-01T01:39:49.118Z,14.83
2018-10-01T01:42:16.594Z,13.73
2018-10-01T01:44:44.034Z,13.47
2018-10-01T01:47:11.544Z,11.33
2018-10-01T01:49:38.928Z,14.33
2018-10-01T01:52:06.504Z,11.73
2018-10-01T01:54:33.924Z,17.40
2018-10-01T01:57:01.322Z,14.33
2018-10-01T01:59:28.886Z,10.53
2018-10-01T02:01:56.302Z,21.70
2018-10-01T02:04:23.816Z,13.40
2018-10-01T02:06:51.458Z,14.83
2018-10-01T02:09:18.850Z,12.17
2018-10-01T02:11:46.268Z,13.93
2018-10-01T02:14:13.786Z,12.50
2018-10-01T02:16:41.310Z,13.93
2018-10-01T02:19:08.970Z,14.63
2018-10-01T02:21:36.450Z,14.70
2018-10-01T02:24:03.898Z,18.53
2018-10-01T02:26:31.386Z,14.30
2018-10-01T02:28:58.799Z,10.43
2018-10-01T02:31:26.362Z,13.00
2018-10-01T02:33:53.774Z,12.07
2018-10-01T02:36:21.214Z,16.93
2018-10-01T02:38:48.677Z,12.50
2018-10-01T02:41:16.088Z,13.20
2018-10-01T02:43:43.565Z,14.60
2018-10-01T02:46:11.053Z,13.93
2018-10-01T02:48:38.602Z,11.90
2018-10-01T02:51:06.392Z,16.50
2018-10-01T02:54:38.274Z,15.90
2018-10-01T02:57:05.784Z,13.73
2018-10-01T02:59:33.717Z,19.73
2018-10-01T03:02:01.143Z,15.60
2018-10-01T03:04:28.569Z,19.63
2018-10-01T03:06:56.101Z,22.90
2018-10-01T03:09:23.621Z,16.63
2018-10-01T03:11:51.112Z,15.10
2018-10-01T03:14:18.495Z,22.00
2018-10-01T03:16:45.939Z,20.53
2018-10-01T03:19:13.383Z,14.47
2018-10-01T03:21:40.961Z,14.00
2018-10-01T03:24:08.439Z,12.77
2018-10-01T03:26:35.930Z,23.03
2018-10-01T03:29:03.347Z,14.13
2018-10-01T03:31:30.751Z,14.90
2018-10-01T03:33:58.243Z,16.33
2018-10-01T03:36:26.445Z,15.10
2018-10-01T03:38:54.414Z,18.93
2018-10-01T03:41:21.905Z,15.57
2018-10-01T03:43:49.299Z,15.53
2018-10-01T03:46:17.023Z,16.20
2018-10-01T03:48:44.683Z,20.57
2018-10-01T03:51:12.141Z,17.13
2018-10-01T03:53:39.741Z,14.80
2018-10-01T03:56:07.450Z,21.23
2018-10-01T03:58:34.871Z,15.57
2018-10-01T04:01:05.525Z,19.60
2018-10-01T04:03:32.992Z,16.63
2018-10-01T04:06:00.386Z,18.43
2018-10-01T04:08:27.762Z,17.43
2018-10-01T04:10:55.206Z,20.17
2018-10-01T04:13:22.609Z,17.37
2018-10-01T04:15:50.014Z,20.80
2018-10-01T04:18:17.539Z,20.63
2018-10-01T04:20:44.976Z,18.43
2018-10-01T04:23:12.344Z,17.90
2018-10-01T04:25:39.825Z,19.10
2018-10-01T04:28:07.383Z,22.07
2018-10-01T04:30:34.909Z,24.63
2018-10-01T04:33:02.362Z,27.00
2018-10-01T04:35:29.931Z,31.37
2018-10-01T04:37:57.309Z,19.60
2018-10-01T04:40:24.790Z,28.03
2018-10-01T04:42:52.179Z,22.00
2018-10-01T04:45:19.611Z,20.30
2018-10-01T04:47:47.075Z,22.20
2018-10-01T04:50:14.511Z,20.23
2018-10-01T04:52:42.001Z,23.23
2018-10-01T04:55:09.639Z,23.17
2018-10-01T04:57:37.069Z,24.83
2018-10-01T05:00:05.673Z,25.17
2018-10-01T05:02:33.119Z,26.80
2018-10-01T05:05:00.489Z,30.43
2018-10-01T05:07:28.002Z,24.80
2018-10-01T05:09:55.409Z,29.00
2018-10-01T05:12:22.841Z,23.63
2018-10-01T05:14:50.333Z,29.80
2018-10-01T05:17:18.189Z,27.67
2018-10-01T05:19:45.633Z,36.37
2018-10-01T05:22:13.249Z,28.73
2018-10-01T05:24:40.864Z,43.63
2018-10-01T05:27:08.355Z,26.37
2018-10-01T05:29:35.799Z,23.23
2018-10-01T05:32:03.319Z,24.57
2018-10-01T05:34:30.707Z,42.33
2018-10-01T05:36:58.257Z,29.73
2018-10-01T05:39:25.679Z,26.87
2018-10-01T05:41:53.171Z,26.80
2018-10-01T05:44:20.601Z,29.50
2018-10-01T05:46:48.017Z,24.47
2018-10-01T05:49:15.449Z,30.50
2018-10-01T05:51:42.939Z,29.83
2018-10-01T05:54:10.399Z,27.37
2018-10-01T05:56:37.823Z,27.83
2018-10-01T05:59:05.469Z,26.90
2018-10-01T06:01:33.045Z,36.50
2018-10-01T06:04:00.447Z,27.80
2018-10-01T06:06:27.881Z,28.20
2018-10-01T06:08:55.406Z,23.67
2018-10-01T06:11:23.575Z,26.50
2018-10-01T06:13:50.960Z,33.17
2018-10-01T06:16:18.438Z,45.37
2018-10-01T06:18:45.801Z,37.90
2018-10-01T06:21:13.215Z,30.70
2018-10-01T06:23:40.661Z,30.30
2018-10-01T06:26:08.157Z,25.73
2018-10-01T06:28:35.594Z,54.07
2018-10-01T06:31:03.047Z,27.83
2018-10-01T06:33:30.406Z,39.37
2018-10-01T06:35:57.810Z,27.73
2018-10-01T06:38:25.260Z,27.87
2018-10-01T06:40:52.700Z,25.10
2018-10-01T06:43:20.203Z,23.33
2018-10-01T06:45:47.674Z,33.07
2018-10-01T06:48:15.146Z,29.97
2018-10-01T06:50:42.628Z,20.43
2018-10-01T06:53:10.110Z,25.73
2018-10-01T06:55:37.546Z,30.10
2018-10-01T06:58:05.086Z,18.33
2018-10-01T07:00:32.574Z,19.50
2018-10-01T07:02:59.978Z,19.30
2018-10-01T07:05:27.443Z,19.33
2018-10-01T07:07:55.010Z,16.23
2018-10-01T07:10:22.489Z,19.70
2018-10-01T07:12:49.880Z,15.90
2018-10-01T07:15:17.298Z,20.03
2018-10-01T07:17:44.697Z,16.40
2018-10-01T07:20:12.125Z,29.17
2018-10-01T07:22:39.801Z,17.33
2018-10-01T07:27:41.684Z,18.57
2018-10-01T07:30:09.106Z,18.80
2018-10-01T07:32:39.575Z,17.73
2018-10-01T07:35:07.135Z,16.43
2018-10-01T07:37:34.565Z,19.80
2018-10-01T07:40:01.997Z,22.03
2018-10-01T07:42:29.578Z,24.33
2018-10-01T07:44:57.120Z,23.70
2018-10-01T07:47:24.633Z,20.60
2018-10-01T07:49:52.121Z,21.40
2018-10-01T07:52:19.541Z,31.70
2018-10-01T07:54:46.957Z,26.43
2018-10-01T07:57:14.504Z,20.93
2018-10-01T07:59:42.105Z,29.93
2018-10-01T08:02:09.495Z,23.53
2018-10-01T08:04:37.019Z,27.00
2018-10-01T08:07:04.454Z,18.63
2018-10-01T08:09:32.052Z,22.60
2018-10-01T08:11:59.461Z,23.00
2018-10-01T08:14:26.861Z,25.03
2018-10-01T08:16:54.257Z,29.00
2018-10-01T08:19:21.715Z,30.90
2018-10-01T08:21:49.182Z,23.30
2018-10-01T08:24:16.745Z,27.40
2018-10-01T08:26:44.278Z,28.03
2018-10-01T08:29:11.776Z,28.13
2018-10-01T08:31:39.170Z,25.93
2018-10-01T08:34:06.637Z,32.50
2018-10-01T08:36:34.159Z,35.80
2018-10-01T08:39:01.728Z,24.13
2018-10-01T08:41:29.323Z,22.57
2018-10-01T08:43:56.714Z,25.60
2018-10-01T08:46:24.119Z,25.13
2018-10-01T08:48:55.521Z,25.57
2018-10-01T08:51:28.541Z,25.67
2018-10-01T08:54:34.294Z,22.23
2018-10-01T08:57:01.845Z,21.57
2018-10-01T08:59:29.433Z,19.47
2018-10-01T09:01:58.141Z,17.40
2018-10-01T09:04:25.622Z,18.27
2018-10-01T09:06:53.226Z,10.60
2018-10-01T09:09:20.518Z,38.60
2018-10-01T09:11:47.997Z,10.77
2018-10-01T09:14:15.435Z,10.20
2018-10-01T09:16:42.974Z,7.63
2018-10-01T09:19:10.392Z,11.90
2018-10-01T09:21:37.937Z,11.60
2018-10-01T09:24:05.434Z,8.50
2018-10-01T09:26:32.912Z,7.80
2018-10-01T09:29:00.321Z,9.23
2018-10-01T09:31:27.832Z,8.33
2018-10-01T09:33:55.282Z,12.37
2018-10-01T09:36:22.923Z,8.30
2018-10-01T09:38:50.404Z,10.10
2018-10-01T09:41:18.118Z,9.40
2018-10-01T09:43:45.568Z,13.70
2018-10-01T09:46:13.162Z,12.23
2018-10-01T09:48:40.565Z,9.30
2018-10-01T09:51:07.996Z,10.73
2018-10-01T09:53:35.553Z,12.27
2018-10-01T09:56:03.093Z,8.23
2018-10-01T09:58:30.549Z,22.10
2018-10-01T10:01:03.786Z,15.30
2018-10-01T10:03:31.235Z,10.13
2018-10-01T10:05:58.690Z,9.80
2018-10-01T10:08:26.171Z,8.23
2018-10-01T10:10:53.623Z,8.57
2018-10-01T10:13:21.105Z,7.50
2018-10-01T10:15:48.850Z,7.47
2018-10-01T10:18:16.451Z,6.17
2018-10-01T10:20:43.856Z,9.60
2018-10-01T10:23:11.351Z,14.23
2018-10-01T10:25:38.802Z,16.13
2018-10-01T10:28:06.352Z,7.93
2018-10-01T10:30:33.957Z,10.50
2018-10-01T10:33:01.567Z,7.67
2018-10-01T10:35:29.298Z,16.43
2018-10-01T10:37:56.731Z,10.00
2018-10-01T10:40:24.127Z,10.23
2018-10-01T10:42:51.560Z,7.53
2018-10-01T10:45:19.097Z,9.87
2018-10-01T10:47:46.573Z,14.83
2018-10-01T10:50:14.194Z,14.00
2018-10-01T10:52:41.994Z,11.53
2018-10-01T10:55:09.426Z,11.17
2018-10-01T10:57:36.955Z,6.30
2018-10-01T11:00:04.595Z,6.77
2018-10-01T11:02:32.215Z,11.57
2018-10-01T11:04:59.575Z,24.03
2018-10-01T11:07:27.166Z,14.07
2018-10-01T11:09:54.602Z,6.40
2018-10-01T11:12:22.110Z,6.30
2018-10-01T11:14:49.566Z,8.13
2018-10-01T11:17:17.142Z,6.17
2018-10-01T11:19:44.608Z,12.50
2018-10-01T11:22:13.497Z,5.63
2018-10-01T11:24:41.188Z,11.20
2018-10-01T11:27:08.730Z,7.20
2018-10-01T11:29:36.548Z,13.17
2018-10-01T11:32:04.048Z,6.00
2018-10-01T11:34:31.583Z,13.17
2018-10-01T11:36:59.367Z,6.97
2018-10-01T11:39:26.897Z,5.97
2018-10-01T11:41:54.344Z,14.70
2018-10-01T11:44:21.794Z,5.03
2018-10-01T11:46:49.196Z,2.90
2018-10-01T11:49:16.658Z,7.77
2018-10-01T11:51:44.287Z,7.33
2018-10-01T11:54:11.688Z,7.77
2018-10-01T11:56:39.229Z,13.30
2018-10-01T11:59:06.715Z,6.43
2018-10-01T12:01:34.208Z,5.10
2018-10-01T12:04:01.706Z,4.30
2018-10-01T12:06:29.076Z,3.43
2018-10-01T12:08:56.672Z,16.43
2018-10-01T12:11:24.123Z,21.03
2018-10-01T12:13:51.661Z,3.03
2018-10-01T12:16:19.136Z,6.17
2018-10-01T12:18:46.654Z,10.53
2018-10-01T12:21:14.285Z,27.17
2018-10-01T12:23:41.843Z,4.93
2018-10-01T12:26:09.328Z,6.83
2018-10-01T12:28:36.856Z,4.23
2018-10-01T12:31:04.348Z,28.83
2018-10-01T12:33:31.838Z,6.63
2018-10-01T12:35:59.229Z,16.90
2018-10-01T12:38:26.666Z,7.70
2018-10-01T12:40:56.873Z,7.90
2018-10-01T12:43:24.667Z,11.17
2018-10-01T12:45:52.170Z,5.40
2018-10-01T12:48:19.825Z,74.67
2018-10-01T12:50:47.239Z,16.70
2018-10-01T12:53:14.830Z,6.17
2018-10-01T12:55:42.374Z,12.50
2018-10-01T12:58:09.879Z,13.40
2018-10-01T13:00:37.423Z,8.40
2018-10-01T13:03:04.987Z,4.17
2018-10-01T13:05:32.531Z,2.90
2018-10-01T13:08:01.129Z,13.30
2018-10-01T13:10:28.767Z,9.90
2018-10-01T13:12:56.669Z,3.10
2018-10-01T13:15:24.321Z,5.90
2018-10-01T13:17:51.752Z,2.73
2018-10-01T13:20:19.363Z,3.77
2018-10-01T13:22:46.848Z,6.23
2018-10-01T13:25:14.366Z,5.53
2018-10-01T13:27:41.943Z,7.00
2018-10-01T13:30:09.615Z,4.40
2018-10-01T13:32:37.062Z,5.83
2018-10-01T13:35:04.583Z,17.57
2018-10-01T13:37:32.070Z,4.23
2018-10-01T13:39:59.574Z,9.67
2018-10-01T13:42:27.107Z,13.70
2018-10-01T13:44:54.562Z,3.00
2018-10-01T13:47:22.153Z,8.23
2018-10-01T13:49:49.708Z,3.93
2018-10-01T13:52:17.481Z,9.40
2018-10-01T13:54:44.935Z,3.17
2018-10-01T13:57:12.556Z,4.87
2018-10-01T13:59:40.062Z,7.77
2018-10-01T14:02:07.580Z,2.80
2018-10-01T14:04:35.003Z,5.00
2018-10-01T14:07:02.517Z,4.23
2018-10-01T14:09:30.065Z,3.53
2018-10-01T14:11:57.660Z,8.67
2018-10-01T14:14:25.077Z,13.43
2018-10-01T14:16:52.524Z,6.43
2018-10-01T14:19:20.106Z,4.93
2018-10-01T14:21:47.574Z,6.40
2018-10-01T14:24:15.158Z,3.33
2018-10-01T14:26:42.650Z,7.00
2018-10-01T14:29:10.246Z,3.70
2018-10-01T14:31:37.713Z,5.20
2018-10-01T14:34:05.222Z,11.40
2018-10-01T14:36:32.788Z,6.73
2018-10-01T14:39:00.198Z,9.50
2018-10-01T14:41:27.693Z,6.67
2018-10-01T14:43:55.126Z,7.03
2018-10-01T14:46:22.642Z,10.57
2018-10-01T14:48:50.112Z,8.90
2018-10-01T14:51:17.656Z,12.83
2018-10-01T14:53:45.043Z,6.50
2018-10-01T14:56:12.706Z,9.57
2018-10-01T14:58:40.163Z,6.07
2018-10-01T15:01:07.614Z,5.67
2018-10-01T15:03:35.621Z,10.93
2018-10-01T15:06:03.091Z,6.60
2018-10-01T15:08:30.656Z,10.40
2018-10-01T15:10:58.329Z,9.23
2018-10-01T15:13:25.900Z,6.10
2018-10-01T15:15:53.320Z,6.00
2018-10-01T15:18:20.962Z,5.00
2018-10-01T15:20:48.314Z,6.57
2018-10-01T15:23:15.744Z,8.63
2018-10-01T15:25:43.202Z,5.33
2018-10-01T15:28:10.724Z,7.60
2018-10-01T15:30:38.255Z,4.40
2018-10-01T15:33:06.082Z,5.00
2018-10-01T15:35:33.574Z,6.00
2018-10-01T15:38:01.014Z,9.63
2018-10-01T15:40:28.625Z,5.03
2018-10-01T15:42:56.470Z,5.70
2018-10-01T15:45:24.230Z,10.83
2018-10-01T15:47:51.654Z,5.77
2018-10-01T15:50:19.104Z,5.47
2018-10-01T15:52:46.556Z,7.47
2018-10-01T15:55:14.190Z,6.00
2018-10-01T15:57:41.618Z,5.10
2018-10-01T16:00:09.162Z,4.10
2018-10-01T16:02:36.778Z,6.10
2018-10-01T16:05:06.260Z,5.23
2018-10-01T16:07:35.034Z,4.70
2018-10-01T16:10:02.622Z,5.80
2018-10-01T16:12:30.072Z,6.40
2018-10-01T16:17:56.643Z,7.67
2018-10-01T16:20:24.114Z,6.40
2018-10-01T16:22:51.701Z,5.70
2018-10-01T16:25:19.186Z,4.97
2018-10-01T16:27:46.604Z,6.80
2018-10-01T16:30:14.049Z,6.77
2018-10-01T16:32:41.548Z,9.90
2018-10-01T16:35:09.453Z,5.00
2018-10-01T16:37:36.930Z,6.57
2018-10-01T16:40:04.557Z,7.13
2018-10-01T16:42:32.035Z,7.13
2018-10-01T16:44:59.523Z,6.03
2018-10-01T16:47:27.004Z,16.80
2018-10-01T16:49:54.450Z,7.30
2018-10-01T16:52:22.023Z,6.87
2018-10-01T16:54:49.654Z,8.53
2018-10-01T16:57:17.260Z,7.57
2018-10-01T16:59:44.754Z,6.07
2018-10-01T17:02:12.510Z,6.40
2018-10-01T17:04:40.142Z,6.30
2018-10-01T17:07:07.654Z,9.63
2018-10-01T17:09:35.166Z,6.60
2018-10-01T17:12:02.555Z,10.70
2018-10-01T17:14:30.128Z,13.27
2018-10-01T17:16:57.664Z,11.70
2018-10-01T17:19:25.200Z,7.87
2018-10-01T17:21:52.676Z,13.73
2018-10-01T17:24:20.180Z,7.53
2018-10-01T17:26:47.655Z,11.00
2018-10-01T17:29:15.188Z,12.70
2018-10-01T17:31:42.726Z,6.53
2018-10-01T17:34:10.182Z,6.33
2018-10-01T17:36:37.791Z,6.37
2018-10-01T17:39:07.958Z,9.07
2018-10-01T17:41:35.643Z,9.33
2018-10-01T17:44:03.354Z,8.60
2018-10-01T17:46:30.955Z,9.27
2018-10-01T17:48:58.428Z,7.90
2018-10-01T17:51:25.947Z,8.00
2018-10-01T17:53:53.495Z,5.90
2018-10-01T17:56:20.987Z,5.70
2018-10-01T17:58:48.426Z,16.93
2018-10-01T18:01:16.317Z,6.30
2018-10-01T18:03:43.797Z,7.10
2018-10-01T18:06:11.937Z,7.17
2018-10-01T18:08:39.467Z,6.60
2018-10-01T18:11:07.017Z,9.50
2018-10-01T18:13:34.638Z,8.47
2018-10-01T18:16:02.139Z,16.43
2018-10-01T18:18:29.571Z,8.37
2018-10-01T18:20:57.060Z,8.30
2018-10-01T18:23:24.570Z,9.37
2018-10-01T18:25:52.026Z,13.50
2018-10-01T18:28:19.502Z,9.43
2018-10-01T18:30:47.154Z,10.03
2018-10-01T18:33:14.594Z,7.40
2018-10-01T18:35:42.233Z,7.60
2018-10-01T18:38:09.798Z,7.00
2018-10-01T18:40:37.298Z,10.53
2018-10-01T18:43:04.782Z,9.27
2018-10-01T18:45:32.342Z,8.93
2018-10-01T18:47:59.779Z,7.40
2018-10-01T18:50:27.405Z,10.67
2018-10-01T18:52:54.846Z,10.13
2018-10-01T18:55:22.804Z,6.60
2018-10-01T18:57:50.710Z,7.87
2018-10-01T19:00:18.280Z,6.93
2018-10-01T19:02:45.848Z,7.60
2018-10-01T19:05:13.390Z,10.13
2018-10-01T19:07:41.828Z,8.27
2018-10-01T19:10:09.997Z,6.77
2018-10-01T19:12:37.543Z,18.23
2018-10-01T19:15:07.543Z,9.33
2018-10-01T19:17:35.037Z,7.30
2018-10-01T19:20:02.719Z,7.87
2018-10-01T19:22:30.294Z,13.30
2018-10-01T19:24:57.812Z,10.80
2018-10-01T19:27:25.480Z,8.40
2018-10-01T19:29:53.504Z,13.87
2018-10-01T19:32:21.101Z,9.97
2018-10-01T19:34:48.583Z,10.10
2018-10-01T19:37:16.105Z,9.33
2018-10-01T19:39:43.687Z,7.33
2018-10-01T19:42:11.139Z,7.93
2018-10-01T19:44:38.607Z,8.40
2018-10-01T19:47:06.416Z,7.37
2018-10-01T19:49:33.878Z,8.57
2018-10-01T19:52:01.811Z,12.73
2018-10-01T19:54:29.231Z,14.30
2018-10-01T19:56:56.703Z,5.30
2018-10-01T19:59:24.250Z,15.40
2018-10-01T20:01:51.763Z,8.40
2018-10-01T20:04:19.291Z,6.33
2018-10-01T20:06:46.795Z,6.90
2018-10-01T20:09:14.344Z,8.20
2018-10-01T20:11:42.043Z,8.17
2018-10-01T20:14:09.513Z,19.43
2018-10-01T20:16:37.044Z,8.03
2018-10-01T20:19:04.757Z,13.00
2018-10-01T20:21:32.359Z,11.97
2018-10-01T20:24:00.133Z,9.63
2018-10-01T20:26:27.650Z,7.20
2018-10-01T20:28:55.657Z,9.07
2018-10-01T20:31:22.835Z,7.90
2018-10-01T20:33:50.366Z,13.50
2018-10-01T20:36:17.996Z,12.17
2018-10-01T20:38:45.450Z,10.30
2018-10-01T20:41:13.131Z,6.90
2018-10-01T20:43:40.614Z,16.83
2018-10-01T20:46:08.221Z,10.00
2018-10-01T20:48:35.672Z,11.73
2018-10-01T20:51:03.195Z,5.07
2018-10-01T20:53:30.718Z,7.53
2018-10-01T20:55:58.161Z,7.30
2018-10-01T20:58:25.659Z,7.70
2018-10-01T21:00:53.144Z,11.80
2018-10-01T21:03:20.615Z,9.90
2018-10-01T21:05:48.923Z,5.47
2018-10-01T21:08:16.348Z,6.07
2018-10-01T21:10:44.117Z,7.67
2018-10-01T21:13:11.583Z,8.63
2018-10-01T21:15:39.182Z,9.37
2018-10-01T21:18:06.795Z,8.07
2018-10-01T21:20:34.361Z,7.30
2018-10-01T21:23:01.778Z,11.33
2018-10-01T21:25:29.242Z,13.13
2018-10-01T21:27:56.998Z,8.60
2018-10-01T21:30:24.453Z,8.87
2018-10-01T21:32:51.845Z,12.33
2018-10-01T21:35:19.335Z,7.20
2018-10-01T21:37:46.806Z,6.20
2018-10-01T21:40:15.824Z,7.77
2018-10-01T21:42:43.540Z,10.37
2018-10-01T21:45:12.179Z,6.60
2018-10-01T21:47:39.663Z,12.70
2018-10-01T21:50:07.765Z,7.13
2018-10-01T21:52:35.483Z,9.37
2018-10-01T21:55:03.035Z,5.63
2018-10-01T21:57:30.613Z,9.50
2018-10-01T21:59:58.179Z,6.50
2018-10-01T22:02:25.603Z,10.60
2018-10-01T22:04:53.232Z,10.90
2018-10-01T22:07:20.874Z,11.73
2018-10-01T22:09:48.915Z,7.00
2018-10-01T22:12:16.385Z,5.93
2018-10-01T22:14:44.047Z,6.97
2018-10-01T22:17:11.581Z,13.77
2018-10-01T22:19:39.237Z,8.23
2018-10-01T22:22:07.008Z,13.50
2018-10-01T22:24:34.691Z,10.33
2018-10-01T22:27:02.479Z,8.63
2018-10-01T22:29:29.902Z,5.87
2018-10-01T22:31:57.335Z,10.43
2018-10-01T22:34:24.827Z,7.33
2018-10-01T22:36:52.472Z,4.90
2018-10-01T22:39:19.882Z,5.90
2018-10-01T22:41:47.387Z,7.50
2018-10-01T22:44:14.955Z,6.57
2018-10-01T22:46:42.379Z,6.57
2018-10-01T22:49:09.821Z,13.03
2018-10-01T22:51:37.329Z,31.97
2018-10-01T22:54:04.892Z,10.33
2018-10-01T22:56:32.695Z,10.17
2018-10-01T22:59:00.221Z,11.93
2018-10-01T23:01:28.070Z,18.23
2018-10-01T23:03:55.493Z,7.83
2018-10-01T23:06:23.392Z,7.67
2018-10-01T23:08:50.888Z,6.53
2018-10-01T23:11:18.340Z,8.43
2018-10-01T23:13:45.784Z,12.87
2018-10-01T23:16:13.256Z,15.70
2018-10-01T23:18:40.794Z,7.03
2018-10-01T23:21:08.216Z,11.67
2018-10-01T23:23:35.658Z,17.53
2018-10-01T23:26:03.132Z,8.90
2018-10-01T23:28:30.563Z,12.03
2018-10-01T23:30:57.956Z,15.17
2018-10-01T23:33:25.364Z,16.77
2018-10-01T23:35:52.890Z,12.90
2018-10-01T23:38:20.299Z,11.43
2018-10-01T23:40:48.734Z,11.93
2018-10-01T23:43:16.146Z,12.87
2018-10-01T23:45:43.568Z,14.70
2018-10-01T23:48:11.040Z,15.73
2018-10-01T23:50:38.510Z,14.57
2018-10-01T23:53:05.974Z,12.73
2018-10-01T23:55:33.568Z,13.10
2018-10-01T23:58:01.060Z,16.40
